METAR Data
IDs: Format: Raw Decoded Include TAF

Data at: 1053 UTC 18 Jan 2022

EGKK 181020Z 06003KT 1500 BR SCT002 OVC006 M00/M01 Q1039